Aeroporto :
LOGIN :

Iscrizione | Disclaimer

   EN    FR    IT 

 










Sommario :    VFR   VFR Marginale   IFR   IFR Intensivo   IFR Molto Intensivo
Visibilità : 
Base nubi : 
>= 8 km
>= 3000ft
5 / 8 km
1000 / 3000 ft
1500m / 5 km
500 / 1000 ft
800 / 1500m
200 / 500 ft
< 800m
< 200 ft
Simboli :   Temporali  Nebbia  Neve Forte  Precipitazioni Forti  Vento > 20 kt
SIGMETs :   Varie  Temporali  Ghiacco  Turbolenza  Onda orograficha  Ceneri Vulcaniche







- Altitudine del aeroporto : 291 ft
- Codice IATA : ORY
- Carte del aeroporto


LFPO - Paris-Orly

ULTIMO METAR :
  • 211030Z 07006KT CAVOK 22/04 Q1018 NOSIG

METARs OBSOLETI :
  • 211000Z 07006KT 030V100 CAVOK 21/03 Q1018 NOSIG
  • 210930Z 05007KT CAVOK 20/06 Q1019 NOSIG
  • 210900Z 05007KT 020V080 CAVOK 18/05 Q1019 NOSIG
  • 210830Z 06008KT CAVOK 17/05 Q1019 NOSIG
  • 210800Z 05006KT CAVOK 17/05 Q1019 NOSIG

TAF TAF LFPO
Valido dal 21 a 06 ore il 22 a 12 ore UTC


210500Z 2106/2212 03005KT CAVOK
ATIS : +33 1 49 75 65 80
Nessun NOTAM noto per questo aeroporto.



MetMap, La meteo Aeronautica in un colpo d'occhio ! - Copyright ORBIFLY Dicembre 2007 - Disclaimer

ORBIFLY MET'MAP TEAM :

Programmazione e sviluppo : Alexandra Zaïnal
Concezione e sviluppo : Baudouin d'Aumeries
Co-Programmazione e sviluppo : Marc-Olivier Méhu
Supporto tecnico e logistico : Manuel Goepfert
Aiuto per la traduzione : Arnaldo La Scala

Contatto : metmap@orbifly.com




FONTI E CREDITI :

   NOAA